首页
METAR-TAF:

METAR-TAF

机场 :

Provo Municipal Airport

普若佛, 犹他州, 美国

纬度: 40-13N, 经度: 111-43W, 海拔: 1369米

当前天气观测

该预报发布于1小时和2分钟前的00:56 UTC
风速3节,风向
温度 35°C
湿度 10%
气压 1013 hPa
能見度: 16.1公里
天空无云

METAR: KPVU 130056Z 10003KT 10SM CLR 35/M01 A2992 RMK AO2 SLP066 T03501011

时间: 19:58 (01:58 UTC)

预报

该预报发布于2小时和38分钟前的23:20 UTC
预报有效从13日的 00点(UTC)到 13日的 24点(UTC)
风速7节,风向西转西南
能見度: 10公里
散云层高于15000英尺
从 13日的 0300点(UTC)
风速7节,风向南转南东
能見度: 10公里
天空无云
从 13日的 1900点(UTC)
风速9节,风向南转西南
能見度: 10公里
天空无云

TAF: KPVU 122320Z 1300/1324 24007KT P6SM SCT150 FM130300 15007KT P6SM SKC FM131900 20009KT P6SM SKC

超过4000个机场的气象观测和天气预报(METAR&TAF报告)。

可查询的气象台以黄色和红色小点在地图上表示。

将鼠标移到小点上方,可查看气象台名称。

然后点击查看天气观测和预报。

如需切换地图:点击带黑十字的绿色按钮放大地图;点击带横线的绿色按钮缩小地图;或者点击绿色箭头查看邻近地区的地图。


METAR-TAF: